Addisleigh Park, NY

3:32 AM EDT on September 01, 2014 (GMT -0400)
South Richmond Hill | Change Station
CLOSE
Current Station
Personal Weather Station
Location: South Richmond Hill, NY
Elevation: 49 ft
Nearby Weather Stations

Elev 49 ft 40.69 °N, 73.83 °W | Updated 1 second ago

Overcast
Overcast
75.0 °F
Feels Like 74 °F
N
4.6
Wind Variable Wind from SW
Gusts 4.6 mph

Today
High -- | Low -- °F
--% Chance of Precip.
Yesterday
High -- | Low -- °F
Precip. -- in
6:22 AM 7:27 PM
Waxing Crescent, 38% visible
Pressure 30.00 in
Visibility 10.0 miles
Clouds Few 900 ft
Scattered Clouds 4600 ft
Overcast 9500 ft
Heat Index 74 °F
Dew Point 72 °F
Humidity 90%
Rainfall 0.00 in
Snow Depth Not available.
UV 0 out of 12
Pollen 8.20 out of 12
Air Quality Not available.
Flu Activity Not available.
METAR KJFK 010651Z 23006KT 10SM FEW009 SCT046 OVC095 24/22 A3000 RMK AO2 RAB12E23 SLP158 P0000 T02390217

More Conditions Fewer Conditions

Pressure 30.00 in
Visibility 10.0 miles
Clouds Few 900 ft
Scattered Clouds 4600 ft
Overcast 9500 ft
Heat Index 74 °F
Dew Point 72 °F
Humidity 90%
Rainfall 0.00 in
Snow Depth Not available.
UV 0 out of 12
Pollen 8.20 out of 12
Air Quality Not available.
Flu Activity Not available.
METAR KJFK 010651Z 23006KT 10SM FEW009 SCT046 OVC095 24/22 A3000 RMK AO2 RAB12E23 SLP158 P0000 T02390217

More Conditions Fewer Conditions

10-Day Weather Forecast

Almanac

Astronomy

Sep. 01, 2014 Rise Set
Actual Time 6:22 AM EDT 7:27 PM EDT
Civil Twilight 5:54 AM EDT 7:55 PM EDT
Nautical Twilight 5:20 AM EDT 8:28 PM EDT
Astronomical Twilight 4:45 AM EDT 9:03 PM EDT
Moon 1:07 PM EDT 11:24 PM EDT
Length of Visible Light 14h 01m
Length of Day
13h 05m
Tomorrow will be 2m 36s shorter.
Waxing Crescent, 38% of the Moon is Illuminated
Today
Waxing Crescent
Sep 2
First Quarter
Sep 8
Full
Sep 15
Last Quarter
Sep 24
New

Today's Extremes

State Highs State Lows

Community

WunderPhotos

Upload Photos

1,749,154 photos uploaded!

Nearby

Snow Depth

Station Depth Elevation
No new snow has been reported.

Earthquake Activity

City Distance Mag. Time & Date
No recent earthquake activity has been reported nearby.
Minimum magnitude displayed is 2.5.

Coastal Water Temperatures

Place Temperature
Sandy Hook, NJ 75.9 °F
The Battery, NY 73.9 °F
Bergen Point West Reach, NJ 75.0 °F
Kings Point, NY 73.9 °F

Nearby Weather Stations